sensor_id;sensor_type;location;lat;lon;timestamp;temperature;humidity
13409;DHT22;6775;49.574;11.170;2024-01-25T00:00:47;7.60;99.90
13409;DHT22;6775;49.574;11.170;2024-01-25T00:03:17;7.60;99.90
13409;DHT22;6775;49.574;11.170;2024-01-25T00:05:45;7.60;99.90
13409;DHT22;6775;49.574;11.170;2024-01-25T00:08:14;7.60;99.90
13409;DHT22;6775;49.574;11.170;2024-01-25T00:10:42;7.60;99.90
13409;DHT22;6775;49.574;11.170;2024-01-25T00:13:10;7.60;99.90
13409;DHT22;6775;49.574;11.170;2024-01-25T00:15:39;7.50;99.90
13409;DHT22;6775;49.574;11.170;2024-01-25T00:18:07;7.60;99.90
13409;DHT22;6775;49.574;11.170;2024-01-25T00:20:36;7.60;99.90
13409;DHT22;6775;49.574;11.170;2024-01-25T00:23:05;7.50;99.90
13409;DHT22;6775;49.574;11.170;2024-01-25T00:25:34;7.50;99.90
13409;DHT22;6775;49.574;11.170;2024-01-25T00:28:02;7.50;99.90
13409;DHT22;6775;49.574;11.170;2024-01-25T00:30:31;7.40;99.90
13409;DHT22;6775;49.574;11.170;2024-01-25T00:32:59;7.40;99.90
13409;DHT22;6775;49.574;11.170;2024-01-25T00:35:28;7.40;99.90
13409;DHT22;6775;49.574;11.170;2024-01-25T00:37:59;7.40;99.90
13409;DHT22;6775;49.574;11.170;2024-01-25T00:40:28;7.40;99.90
13409;DHT22;6775;49.574;11.170;2024-01-25T00:42:57;7.40;99.90
13409;DHT22;6775;49.574;11.170;2024-01-25T00:45:26;7.40;99.90
13409;DHT22;6775;49.574;11.170;2024-01-25T00:47:55;7.40;99.90
13409;DHT22;6775;49.574;11.170;2024-01-25T00:50:24;7.50;99.90
13409;DHT22;6775;49.574;11.170;2024-01-25T00:52:54;7.50;99.90
13409;DHT22;6775;49.574;11.170;2024-01-25T00:55:24;7.50;99.90
13409;DHT22;6775;49.574;11.170;2024-01-25T00:57:53;7.50;99.90
13409;DHT22;6775;49.574;11.170;2024-01-25T01:00:23;7.50;99.90
13409;DHT22;6775;49.574;11.170;2024-01-25T01:02:53;7.50;99.90
13409;DHT22;6775;49.574;11.170;2024-01-25T01:05:22;7.50;99.90
13409;DHT22;6775;49.574;11.170;2024-01-25T01:07:52;7.50;99.90
13409;DHT22;6775;49.574;11.170;2024-01-25T01:10:21;7.50;99.90
13409;DHT22;6775;49.574;11.170;2024-01-25T01:12:50;7.40;99.90
13409;DHT22;6775;49.574;11.170;2024-01-25T01:15:20;7.40;99.90
13409;DHT22;6775;49.574;11.170;2024-01-25T01:17:48;7.50;99.90
13409;DHT22;6775;49.574;11.170;2024-01-25T01:20:17;7.50;99.90
13409;DHT22;6775;49.574;11.170;2024-01-25T01:22:45;7.50;99.90
13409;DHT22;6775;49.574;11.170;2024-01-25T01:25:14;7.50;99.90
13409;DHT22;6775;49.574;11.170;2024-01-25T01:27:42;7.50;99.90
13409;DHT22;6775;49.574;11.170;2024-01-25T01:30:12;7.40;99.90
13409;DHT22;6775;49.574;11.170;2024-01-25T01:32:40;7.40;99.90
13409;DHT22;6775;49.574;11.170;2024-01-25T01:35:08;7.40;99.90
13409;DHT22;6775;49.574;11.170;2024-01-25T01:37:37;7.40;99.90
13409;DHT22;6775;49.574;11.170;2024-01-25T01:40:06;7.40;99.90
13409;DHT22;6775;49.574;11.170;2024-01-25T01:42:35;7.40;99.90
13409;DHT22;6775;49.574;11.170;2024-01-25T01:45:04;7.40;99.90
13409;DHT22;6775;49.574;11.170;2024-01-25T01:47:34;7.40;99.90
13409;DHT22;6775;49.574;11.170;2024-01-25T01:50:03;7.40;99.90
13409;DHT22;6775;49.574;11.170;2024-01-25T01:52:33;7.40;99.90
13409;DHT22;6775;49.574;11.170;2024-01-25T01:55:02;7.40;99.90
13409;DHT22;6775;49.574;11.170;2024-01-25T01:57:31;7.40;99.90
13409;DHT22;6775;49.574;11.170;2024-01-25T02:00:00;7.30;99.90
13409;DHT22;6775;49.574;11.170;2024-01-25T02:02:31;7.30;99.90
13409;DHT22;6775;49.574;11.170;2024-01-25T02:05:01;7.30;99.90
13409;DHT22;6775;49.574;11.170;2024-01-25T02:21:04;7.30;99.90
13409;DHT22;6775;49.574;11.170;2024-01-25T02:23:33;7.30;99.90
13409;DHT22;6775;49.574;11.170;2024-01-25T02:26:02;7.30;99.90
13409;DHT22;6775;49.574;11.170;2024-01-25T02:28:30;7.30;99.90
13409;DHT22;6775;49.574;11.170;2024-01-25T02:30:59;7.30;99.90
13409;DHT22;6775;49.574;11.170;2024-01-25T02:33:29;7.30;99.90
13409;DHT22;6775;49.574;11.170;2024-01-25T02:35:58;7.30;99.90
13409;DHT22;6775;49.574;11.170;2024-01-25T02:38:26;7.30;99.90
13409;DHT22;6775;49.574;11.170;2024-01-25T02:40:55;7.30;99.90
13409;DHT22;6775;49.574;11.170;2024-01-25T02:43:23;7.30;99.90
13409;DHT22;6775;49.574;11.170;2024-01-25T02:45:52;7.30;99.90
13409;DHT22;6775;49.574;11.170;2024-01-25T02:48:20;7.30;99.90
13409;DHT22;6775;49.574;11.170;2024-01-25T02:50:48;7.30;99.90
13409;DHT22;6775;49.574;11.170;2024-01-25T02:53:17;7.40;99.90
13409;DHT22;6775;49.574;11.170;2024-01-25T02:55:45;7.40;99.90
13409;DHT22;6775;49.574;11.170;2024-01-25T02:58:14;7.40;99.90
13409;DHT22;6775;49.574;11.170;2024-01-25T03:00:42;7.40;99.90
13409;DHT22;6775;49.574;11.170;2024-01-25T03:03:11;7.40;99.90
13409;DHT22;6775;49.574;11.170;2024-01-25T03:05:39;7.40;99.90
13409;DHT22;6775;49.574;11.170;2024-01-25T03:08:07;7.40;99.90
13409;DHT22;6775;49.574;11.170;2024-01-25T03:10:35;7.40;99.90
13409;DHT22;6775;49.574;11.170;2024-01-25T03:13:04;7.40;99.90
13409;DHT22;6775;49.574;11.170;2024-01-25T03:15:33;7.40;99.90
13409;DHT22;6775;49.574;11.170;2024-01-25T03:18:02;7.30;99.90
13409;DHT22;6775;49.574;11.170;2024-01-25T03:20:30;7.30;99.90
13409;DHT22;6775;49.574;11.170;2024-01-25T03:22:58;7.30;99.90
13409;DHT22;6775;49.574;11.170;2024-01-25T03:25:26;7.30;99.90
13409;DHT22;6775;49.574;11.170;2024-01-25T03:27:56;7.30;99.90
13409;DHT22;6775;49.574;11.170;2024-01-25T03:30:24;7.30;99.90
13409;DHT22;6775;49.574;11.170;2024-01-25T03:32:53;7.30;99.90
13409;DHT22;6775;49.574;11.170;2024-01-25T03:35:22;7.30;99.90
13409;DHT22;6775;49.574;11.170;2024-01-25T03:37:50;7.30;99.90
13409;DHT22;6775;49.574;11.170;2024-01-25T03:40:18;7.30;99.90
13409;DHT22;6775;49.574;11.170;2024-01-25T03:42:47;7.30;99.90
13409;DHT22;6775;49.574;11.170;2024-01-25T03:45:35;7.30;99.90
13409;DHT22;6775;49.574;11.170;2024-01-25T03:57:01;7.30;99.90
13409;DHT22;6775;49.574;11.170;2024-01-25T03:59:29;7.30;99.90
13409;DHT22;6775;49.574;11.170;2024-01-25T04:01:58;7.30;99.90
13409;DHT22;6775;49.574;11.170;2024-01-25T04:04:26;7.30;99.90
13409;DHT22;6775;49.574;11.170;2024-01-25T04:06:55;7.30;99.90
13409;DHT22;6775;49.574;11.170;2024-01-25T04:09:23;7.30;99.90
13409;DHT22;6775;49.574;11.170;2024-01-25T04:11:51;7.30;99.90
13409;DHT22;6775;49.574;11.170;2024-01-25T04:14:21;7.30;99.90
13409;DHT22;6775;49.574;11.170;2024-01-25T04:16:49;7.30;99.90
13409;DHT22;6775;49.574;11.170;2024-01-25T04:19:17;7.30;99.90
13409;DHT22;6775;49.574;11.170;2024-01-25T04:21:46;7.30;99.90
13409;DHT22;6775;49.574;11.170;2024-01-25T04:24:14;7.30;99.90
13409;DHT22;6775;49.574;11.170;2024-01-25T04:26:42;7.40;99.90
13409;DHT22;6775;49.574;11.170;2024-01-25T04:29:10;7.30;99.90
13409;DHT22;6775;49.574;11.170;2024-01-25T04:31:44;7.30;99.90
13409;DHT22;6775;49.574;11.170;2024-01-25T04:34:13;7.30;99.90
13409;DHT22;6775;49.574;11.170;2024-01-25T04:36:42;7.30;99.90
13409;DHT22;6775;49.574;11.170;2024-01-25T04:39:11;7.30;99.90
13409;DHT22;6775;49.574;11.170;2024-01-25T04:41:39;7.30;99.90
13409;DHT22;6775;49.574;11.170;2024-01-25T04:44:07;7.20;99.90
13409;DHT22;6775;49.574;11.170;2024-01-25T04:46:35;7.20;99.90
13409;DHT22;6775;49.574;11.170;2024-01-25T04:49:05;7.20;99.90
13409;DHT22;6775;49.574;11.170;2024-01-25T04:51:34;7.20;99.90
13409;DHT22;6775;49.574;11.170;2024-01-25T04:54:02;7.20;99.90
13409;DHT22;6775;49.574;11.170;2024-01-25T04:56:31;7.20;99.90
13409;DHT22;6775;49.574;11.170;2024-01-25T04:58:59;7.10;99.90
13409;DHT22;6775;49.574;11.170;2024-01-25T05:01:27;7.10;99.90
13409;DHT22;6775;49.574;11.170;2024-01-25T05:03:55;7.10;99.90
13409;DHT22;6775;49.574;11.170;2024-01-25T05:06:25;7.00;99.90
13409;DHT22;6775;49.574;11.170;2024-01-25T05:08:53;7.00;99.90
13409;DHT22;6775;49.574;11.170;2024-01-25T05:11:21;7.00;99.90
13409;DHT22;6775;49.574;11.170;2024-01-25T05:13:49;7.00;99.90
13409;DHT22;6775;49.574;11.170;2024-01-25T05:16:17;7.00;99.90
13409;DHT22;6775;49.574;11.170;2024-01-25T05:18:46;7.00;99.90
13409;DHT22;6775;49.574;11.170;2024-01-25T05:21:14;7.00;99.90
13409;DHT22;6775;49.574;11.170;2024-01-25T05:23:43;7.10;99.90
13409;DHT22;6775;49.574;11.170;2024-01-25T05:26:12;7.10;99.90
13409;DHT22;6775;49.574;11.170;2024-01-25T05:28:40;7.10;99.90
13409;DHT22;6775;49.574;11.170;2024-01-25T05:31:08;7.10;99.90
13409;DHT22;6775;49.574;11.170;2024-01-25T05:33:39;7.10;99.90
13409;DHT22;6775;49.574;11.170;2024-01-25T05:36:08;7.10;99.90
13409;DHT22;6775;49.574;11.170;2024-01-25T05:38:36;7.10;99.90
13409;DHT22;6775;49.574;11.170;2024-01-25T05:41:06;7.10;99.90
13409;DHT22;6775;49.574;11.170;2024-01-25T05:43:34;7.10;99.90
13409;DHT22;6775;49.574;11.170;2024-01-25T05:46:03;7.10;99.90
13409;DHT22;6775;49.574;11.170;2024-01-25T05:48:31;7.10;99.90
13409;DHT22;6775;49.574;11.170;2024-01-25T05:50:59;7.10;99.90
13409;DHT22;6775;49.574;11.170;2024-01-25T05:53:28;7.20;99.90
13409;DHT22;6775;49.574;11.170;2024-01-25T05:55:56;7.10;99.90
13409;DHT22;6775;49.574;11.170;2024-01-25T05:58:26;7.10;99.90
13409;DHT22;6775;49.574;11.170;2024-01-25T06:00:55;7.10;99.90
13409;DHT22;6775;49.574;11.170;2024-01-25T06:03:23;7.10;99.90
13409;DHT22;6775;49.574;11.170;2024-01-25T06:05:51;7.10;99.90
13409;DHT22;6775;49.574;11.170;2024-01-25T06:08:19;7.20;99.90
13409;DHT22;6775;49.574;11.170;2024-01-25T06:10:48;7.10;99.90
13409;DHT22;6775;49.574;11.170;2024-01-25T06:13:16;7.10;99.90
13409;DHT22;6775;49.574;11.170;2024-01-25T06:15:46;7.10;99.90
13409;DHT22;6775;49.574;11.170;2024-01-25T06:18:14;7.00;99.90
13409;DHT22;6775;49.574;11.170;2024-01-25T06:20:42;7.00;99.90
13409;DHT22;6775;49.574;11.170;2024-01-25T06:23:11;7.00;99.90
13409;DHT22;6775;49.574;11.170;2024-01-25T06:25:39;7.00;99.90
13409;DHT22;6775;49.574;11.170;2024-01-25T06:28:07;7.00;99.90
13409;DHT22;6775;49.574;11.170;2024-01-25T06:30:35;6.90;99.90
13409;DHT22;6775;49.574;11.170;2024-01-25T06:33:05;6.80;99.90
13409;DHT22;6775;49.574;11.170;2024-01-25T06:35:34;6.70;99.90
13409;DHT22;6775;49.574;11.170;2024-01-25T06:38:03;6.70;99.90
13409;DHT22;6775;49.574;11.170;2024-01-25T06:40:31;6.70;99.90
13409;DHT22;6775;49.574;11.170;2024-01-25T06:42:58;6.60;99.90
13409;DHT22;6775;49.574;11.170;2024-01-25T06:45:27;6.60;99.90
13409;DHT22;6775;49.574;11.170;2024-01-25T06:47:55;6.50;99.90
13409;DHT22;6775;49.574;11.170;2024-01-25T06:50:24;6.50;99.90
13409;DHT22;6775;49.574;11.170;2024-01-25T06:52:53;6.40;99.90
13409;DHT22;6775;49.574;11.170;2024-01-25T06:55:22;6.40;99.90
13409;DHT22;6775;49.574;11.170;2024-01-25T06:57:50;6.40;99.90
13409;DHT22;6775;49.574;11.170;2024-01-25T07:00:18;6.30;99.90
13409;DHT22;6775;49.574;11.170;2024-01-25T07:02:48;6.30;99.90
13409;DHT22;6775;49.574;11.170;2024-01-25T07:05:17;6.30;99.90
13409;DHT22;6775;49.574;11.170;2024-01-25T07:07:47;6.30;99.90
13409;DHT22;6775;49.574;11.170;2024-01-25T07:10:16;6.30;99.90
13409;DHT22;6775;49.574;11.170;2024-01-25T07:12:44;6.30;99.90
13409;DHT22;6775;49.574;11.170;2024-01-25T07:15:12;6.30;99.90
13409;DHT22;6775;49.574;11.170;2024-01-25T07:17:41;6.30;99.90
13409;DHT22;6775;49.574;11.170;2024-01-25T07:20:10;6.30;99.90
13409;DHT22;6775;49.574;11.170;2024-01-25T07:22:39;6.40;99.90
13409;DHT22;6775;49.574;11.170;2024-01-25T07:25:09;6.50;99.90
13409;DHT22;6775;49.574;11.170;2024-01-25T07:27:37;6.50;99.90
13409;DHT22;6775;49.574;11.170;2024-01-25T07:30:07;6.50;99.90
13409;DHT22;6775;49.574;11.170;2024-01-25T07:32:36;6.60;99.90
13409;DHT22;6775;49.574;11.170;2024-01-25T07:35:05;6.60;99.90
13409;DHT22;6775;49.574;11.170;2024-01-25T07:37:34;6.70;99.90
13409;DHT22;6775;49.574;11.170;2024-01-25T07:40:03;6.70;99.90
13409;DHT22;6775;49.574;11.170;2024-01-25T07:42:33;6.70;99.90
13409;DHT22;6775;49.574;11.170;2024-01-25T07:45:01;6.70;99.90
13409;DHT22;6775;49.574;11.170;2024-01-25T07:47:29;6.80;99.90
13409;DHT22;6775;49.574;11.170;2024-01-25T07:49:58;6.90;99.90
13409;DHT22;6775;49.574;11.170;2024-01-25T07:52:26;7.00;99.90
13409;DHT22;6775;49.574;11.170;2024-01-25T07:54:54;7.10;99.90
13409;DHT22;6775;49.574;11.170;2024-01-25T07:57:23;7.10;99.90
13409;DHT22;6775;49.574;11.170;2024-01-25T07:59:52;7.20;99.90
13409;DHT22;6775;49.574;11.170;2024-01-25T08:02:20;7.20;99.90
13409;DHT22;6775;49.574;11.170;2024-01-25T08:04:49;7.30;99.90
13409;DHT22;6775;49.574;11.170;2024-01-25T08:07:18;7.40;99.90
13409;DHT22;6775;49.574;11.170;2024-01-25T08:09:46;7.50;99.90
13409;DHT22;6775;49.574;11.170;2024-01-25T08:12:18;7.60;99.90
13409;DHT22;6775;49.574;11.170;2024-01-25T08:14:46;7.60;99.90
13409;DHT22;6775;49.574;11.170;2024-01-25T08:17:16;7.80;99.90
13409;DHT22;6775;49.574;11.170;2024-01-25T08:19:45;8.00;99.90
13409;DHT22;6775;49.574;11.170;2024-01-25T08:22:17;8.20;99.90
13409;DHT22;6775;49.574;11.170;2024-01-25T08:24:49;8.50;99.90
13409;DHT22;6775;49.574;11.170;2024-01-25T08:27:17;8.80;99.90
13409;DHT22;6775;49.574;11.170;2024-01-25T08:29:46;9.10;99.90
13409;DHT22;6775;49.574;11.170;2024-01-25T08:32:15;9.60;99.90
13409;DHT22;6775;49.574;11.170;2024-01-25T08:34:43;10.20;99.90
13409;DHT22;6775;49.574;11.170;2024-01-25T08:37:12;11.80;99.90
13409;DHT22;6775;49.574;11.170;2024-01-25T08:39:40;13.30;99.90
13409;DHT22;6775;49.574;11.170;2024-01-25T08:42:10;15.10;99.90
13409;DHT22;6775;49.574;11.170;2024-01-25T08:44:38;17.00;99.00
13409;DHT22;6775;49.574;11.170;2024-01-25T08:47:11;18.90;93.60
13409;DHT22;6775;49.574;11.170;2024-01-25T08:49:40;20.30;85.20
13409;DHT22;6775;49.574;11.170;2024-01-25T08:52:09;21.10;77.00
13409;DHT22;6775;49.574;11.170;2024-01-25T08:54:37;21.70;71.70
13409;DHT22;6775;49.574;11.170;2024-01-25T08:57:05;22.10;67.80
13409;DHT22;6775;49.574;11.170;2024-01-25T08:59:34;22.50;63.70
13409;DHT22;6775;49.574;11.170;2024-01-25T09:02:04;23.00;61.90
13409;DHT22;6775;49.574;11.170;2024-01-25T09:04:33;23.00;59.80
13409;DHT22;6775;49.574;11.170;2024-01-25T09:07:03;22.90;59.50
13409;DHT22;6775;49.574;11.170;2024-01-25T09:09:32;22.10;59.60
13409;DHT22;6775;49.574;11.170;2024-01-25T09:12:00;21.30;61.60
13409;DHT22;6775;49.574;11.170;2024-01-25T09:14:28;21.00;59.50
13409;DHT22;6775;49.574;11.170;2024-01-25T09:16:58;21.70;58.70
13409;DHT22;6775;49.574;11.170;2024-01-25T09:19:27;22.80;56.70
13409;DHT22;6775;49.574;11.170;2024-01-25T09:21:55;23.70;55.20
13409;DHT22;6775;49.574;11.170;2024-01-25T09:24:28;24.50;52.60
13409;DHT22;6775;49.574;11.170;2024-01-25T09:26:56;24.40;51.00
13409;DHT22;6775;49.574;11.170;2024-01-25T09:29:25;24.00;51.30
13409;DHT22;6775;49.574;11.170;2024-01-25T09:31:54;22.30;52.80
13409;DHT22;6775;49.574;11.170;2024-01-25T09:34:22;19.40;57.20
13409;DHT22;6775;49.574;11.170;2024-01-25T09:36:50;16.70;63.90
13409;DHT22;6775;49.574;11.170;2024-01-25T09:39:19;14.80;70.90
13409;DHT22;6775;49.574;11.170;2024-01-25T09:41:49;13.60;76.30
13409;DHT22;6775;49.574;11.170;2024-01-25T09:44:18;12.50;81.50
13409;DHT22;6775;49.574;11.170;2024-01-25T09:46:46;11.80;87.00
13409;DHT22;6775;49.574;11.170;2024-01-25T09:49:15;11.40;91.10
13409;DHT22;6775;49.574;11.170;2024-01-25T09:51:43;11.10;93.60
13409;DHT22;6775;49.574;11.170;2024-01-25T09:54:11;10.80;95.80
13409;DHT22;6775;49.574;11.170;2024-01-25T09:56:41;10.60;97.40
13409;DHT22;6775;49.574;11.170;2024-01-25T09:59:11;10.70;98.40
13409;DHT22;6775;49.574;11.170;2024-01-25T10:01:39;10.70;98.60
13409;DHT22;6775;49.574;11.170;2024-01-25T10:04:08;10.60;99.30
13409;DHT22;6775;49.574;11.170;2024-01-25T10:06:36;10.70;99.80
13409;DHT22;6775;49.574;11.170;2024-01-25T10:09:05;10.80;99.90
13409;DHT22;6775;49.574;11.170;2024-01-25T10:11:36;10.80;99.90
13409;DHT22;6775;49.574;11.170;2024-01-25T10:14:14;10.70;99.90
13409;DHT22;6775;49.574;11.170;2024-01-25T10:16:42;10.80;99.90
13409;DHT22;6775;49.574;11.170;2024-01-25T10:19:12;10.80;99.90
13409;DHT22;6775;49.574;11.170;2024-01-25T10:21:41;11.00;99.90
13409;DHT22;6775;49.574;11.170;2024-01-25T10:24:10;11.10;99.60
13409;DHT22;6775;49.574;11.170;2024-01-25T10:26:41;11.20;99.50
13409;DHT22;6775;49.574;11.170;2024-01-25T10:29:09;11.20;98.20
13409;DHT22;6775;49.574;11.170;2024-01-25T10:31:39;11.40;98.30
13409;DHT22;6775;49.574;11.170;2024-01-25T10:34:11;11.90;97.70
13409;DHT22;6775;49.574;11.170;2024-01-25T10:36:43;12.00;96.90
13409;DHT22;6775;49.574;11.170;2024-01-25T10:39:13;12.40;96.70
13409;DHT22;6775;49.574;11.170;2024-01-25T10:41:43;12.50;95.30
13409;DHT22;6775;49.574;11.170;2024-01-25T10:44:18;13.00;94.40
13409;DHT22;6775;49.574;11.170;2024-01-25T10:46:48;13.20;93.90
13409;DHT22;6775;49.574;11.170;2024-01-25T10:49:18;13.60;92.40
13409;DHT22;6775;49.574;11.170;2024-01-25T10:51:46;14.10;92.40
13409;DHT22;6775;49.574;11.170;2024-01-25T10:54:17;14.80;90.60
13409;DHT22;6775;49.574;11.170;2024-01-25T10:56:46;14.30;90.50
13409;DHT22;6775;49.574;11.170;2024-01-25T10:59:16;13.90;90.70
13409;DHT22;6775;49.574;11.170;2024-01-25T11:01:45;13.60;91.00
13409;DHT22;6775;49.574;11.170;2024-01-25T11:04:17;13.40;90.90
13409;DHT22;6775;49.574;11.170;2024-01-25T11:06:47;12.90;91.40
13409;DHT22;6775;49.574;11.170;2024-01-25T11:09:17;12.40;92.00
13409;DHT22;6775;49.574;11.170;2024-01-25T11:11:47;11.90;92.60
13409;DHT22;6775;49.574;11.170;2024-01-25T11:14:16;11.40;93.70
13409;DHT22;6775;49.574;11.170;2024-01-25T11:16:44;11.10;95.20
13409;DHT22;6775;49.574;11.170;2024-01-25T11:19:18;11.00;94.80
13409;DHT22;6775;49.574;11.170;2024-01-25T11:21:49;10.80;95.00
13409;DHT22;6775;49.574;11.170;2024-01-25T11:24:21;10.70;95.40
13409;DHT22;6775;49.574;11.170;2024-01-25T11:26:50;10.60;95.90
13409;DHT22;6775;49.574;11.170;2024-01-25T11:29:21;10.60;96.30
13409;DHT22;6775;49.574;11.170;2024-01-25T11:31:51;10.70;96.50
13409;DHT22;6775;49.574;11.170;2024-01-25T11:34:22;10.80;96.90
13409;DHT22;6775;49.574;11.170;2024-01-25T11:36:51;10.90;96.80
13409;DHT22;6775;49.574;11.170;2024-01-25T11:39:19;11.00;96.20
13409;DHT22;6775;49.574;11.170;2024-01-25T11:41:48;11.10;96.40
13409;DHT22;6775;49.574;11.170;2024-01-25T11:44:19;11.40;95.90
13409;DHT22;6775;49.574;11.170;2024-01-25T11:46:50;11.40;95.80
13409;DHT22;6775;49.574;11.170;2024-01-25T11:49:24;11.20;96.20
13409;DHT22;6775;49.574;11.170;2024-01-25T11:51:53;10.90;96.70
13409;DHT22;6775;49.574;11.170;2024-01-25T11:54:21;10.60;97.20
13409;DHT22;6775;49.574;11.170;2024-01-25T11:56:50;10.30;97.40
13409;DHT22;6775;49.574;11.170;2024-01-25T11:59:18;10.10;97.70
13409;DHT22;6775;49.574;11.170;2024-01-25T12:01:47;9.90;99.10
13409;DHT22;6775;49.574;11.170;2024-01-25T12:04:17;9.70;99.80
13409;DHT22;6775;49.574;11.170;2024-01-25T12:06:47;9.70;99.90
13409;DHT22;6775;49.574;11.170;2024-01-25T12:09:17;9.50;99.90
13409;DHT22;6775;49.574;11.170;2024-01-25T12:11:49;9.50;99.90
13409;DHT22;6775;49.574;11.170;2024-01-25T12:14:18;9.70;99.90
13409;DHT22;6775;49.574;11.170;2024-01-25T12:16:46;9.60;99.90
13409;DHT22;6775;49.574;11.170;2024-01-25T12:19:15;9.70;99.90
13409;DHT22;6775;49.574;11.170;2024-01-25T12:21:45;9.80;99.90
13409;DHT22;6775;49.574;11.170;2024-01-25T12:24:14;9.80;99.90
13409;DHT22;6775;49.574;11.170;2024-01-25T12:26:43;9.80;99.90
13409;DHT22;6775;49.574;11.170;2024-01-25T12:29:11;9.80;99.90
13409;DHT22;6775;49.574;11.170;2024-01-25T12:31:39;9.70;99.90
13409;DHT22;6775;49.574;11.170;2024-01-25T12:34:13;9.60;99.90
13409;DHT22;6775;49.574;11.170;2024-01-25T12:36:43;9.50;99.90
13409;DHT22;6775;49.574;11.170;2024-01-25T12:39:12;9.40;99.90
13409;DHT22;6775;49.574;11.170;2024-01-25T12:41:45;9.30;99.90
13409;DHT22;6775;49.574;11.170;2024-01-25T12:44:14;9.30;99.90
13409;DHT22;6775;49.574;11.170;2024-01-25T12:46:42;9.20;99.90
13409;DHT22;6775;49.574;11.170;2024-01-25T12:49:11;9.20;99.90
13409;DHT22;6775;49.574;11.170;2024-01-25T12:51:40;9.10;99.90
13409;DHT22;6775;49.574;11.170;2024-01-25T12:54:08;9.20;99.90
13409;DHT22;6775;49.574;11.170;2024-01-25T12:56:38;9.20;99.90
13409;DHT22;6775;49.574;11.170;2024-01-25T12:59:07;9.20;99.90
13409;DHT22;6775;49.574;11.170;2024-01-25T13:01:36;9.20;99.90
13409;DHT22;6775;49.574;11.170;2024-01-25T13:04:05;9.20;99.90
13409;DHT22;6775;49.574;11.170;2024-01-25T13:06:33;9.20;99.90
13409;DHT22;6775;49.574;11.170;2024-01-25T13:09:01;9.10;99.90
13409;DHT22;6775;49.574;11.170;2024-01-25T13:11:30;9.10;99.90
13409;DHT22;6775;49.574;11.170;2024-01-25T13:14:01;9.00;99.90
13409;DHT22;6775;49.574;11.170;2024-01-25T13:16:29;9.00;99.90
13409;DHT22;6775;49.574;11.170;2024-01-25T13:18:58;9.00;99.90
13409;DHT22;6775;49.574;11.170;2024-01-25T13:21:26;9.00;99.90
13409;DHT22;6775;49.574;11.170;2024-01-25T13:23:55;9.10;99.90
13409;DHT22;6775;49.574;11.170;2024-01-25T13:26:23;9.10;99.90
13409;DHT22;6775;49.574;11.170;2024-01-25T13:28:51;9.30;99.90
13409;DHT22;6775;49.574;11.170;2024-01-25T13:31:21;9.40;99.90
13409;DHT22;6775;49.574;11.170;2024-01-25T13:33:49;9.40;99.90
13409;DHT22;6775;49.574;11.170;2024-01-25T13:36:17;9.40;99.90
13409;DHT22;6775;49.574;11.170;2024-01-25T13:38:46;9.30;99.90
13409;DHT22;6775;49.574;11.170;2024-01-25T13:41:14;9.40;99.90
13409;DHT22;6775;49.574;11.170;2024-01-25T13:43:42;9.10;99.90
13409;DHT22;6775;49.574;11.170;2024-01-25T13:46:10;9.20;99.90
13409;DHT22;6775;49.574;11.170;2024-01-25T13:48:40;9.30;99.90
13409;DHT22;6775;49.574;11.170;2024-01-25T13:51:08;9.60;99.90
13409;DHT22;6775;49.574;11.170;2024-01-25T13:53:36;10.00;99.90
13409;DHT22;6775;49.574;11.170;2024-01-25T13:56:05;10.10;99.90
13409;DHT22;6775;49.574;11.170;2024-01-25T13:58:33;10.10;99.40
13409;DHT22;6775;49.574;11.170;2024-01-25T14:01:01;10.10;99.10
13409;DHT22;6775;49.574;11.170;2024-01-25T14:03:29;10.20;99.10
13409;DHT22;6775;49.574;11.170;2024-01-25T14:06:00;10.10;99.40
13409;DHT22;6775;49.574;11.170;2024-01-25T14:08:32;10.00;99.50
13409;DHT22;6775;49.574;11.170;2024-01-25T14:11:00;9.70;99.90
13409;DHT22;6775;49.574;11.170;2024-01-25T14:13:28;9.70;99.90
13409;DHT22;6775;49.574;11.170;2024-01-25T14:15:56;9.60;99.90
13409;DHT22;6775;49.574;11.170;2024-01-25T14:18:27;9.50;99.90
13409;DHT22;6775;49.574;11.170;2024-01-25T14:20:57;9.40;99.90
13409;DHT22;6775;49.574;11.170;2024-01-25T14:23:26;9.30;99.90
13409;DHT22;6775;49.574;11.170;2024-01-25T14:25:55;9.30;99.90
13409;DHT22;6775;49.574;11.170;2024-01-25T14:28:23;9.20;99.90
13409;DHT22;6775;49.574;11.170;2024-01-25T14:30:51;9.10;99.90
13409;DHT22;6775;49.574;11.170;2024-01-25T14:33:20;9.00;99.90
13409;DHT22;6775;49.574;11.170;2024-01-25T14:35:48;8.90;99.90
13409;DHT22;6775;49.574;11.170;2024-01-25T14:38:16;9.00;99.90
13409;DHT22;6775;49.574;11.170;2024-01-25T14:40:46;8.80;99.90
13409;DHT22;6775;49.574;11.170;2024-01-25T14:43:25;8.70;99.90
13409;DHT22;6775;49.574;11.170;2024-01-25T14:45:53;8.60;99.90
13409;DHT22;6775;49.574;11.170;2024-01-25T14:48:21;8.60;99.90
13409;DHT22;6775;49.574;11.170;2024-01-25T14:50:49;8.50;99.90
13409;DHT22;6775;49.574;11.170;2024-01-25T14:53:18;8.50;99.90
13409;DHT22;6775;49.574;11.170;2024-01-25T14:55:47;8.40;99.90
13409;DHT22;6775;49.574;11.170;2024-01-25T14:58:16;8.30;99.90
13409;DHT22;6775;49.574;11.170;2024-01-25T15:00:49;8.30;99.90
13409;DHT22;6775;49.574;11.170;2024-01-25T15:03:19;8.20;99.90
13409;DHT22;6775;49.574;11.170;2024-01-25T15:05:47;8.20;99.90
13409;DHT22;6775;49.574;11.170;2024-01-25T15:08:15;8.10;99.90
13409;DHT22;6775;49.574;11.170;2024-01-25T15:10:44;8.10;99.90
13409;DHT22;6775;49.574;11.170;2024-01-25T15:13:13;8.10;99.90
13409;DHT22;6775;49.574;11.170;2024-01-25T15:15:42;8.00;99.90
13409;DHT22;6775;49.574;11.170;2024-01-25T15:18:11;8.00;99.90
13409;DHT22;6775;49.574;11.170;2024-01-25T15:20:39;7.90;99.90
13409;DHT22;6775;49.574;11.170;2024-01-25T15:23:08;7.90;99.90
13409;DHT22;6775;49.574;11.170;2024-01-25T15:25:36;7.80;99.90
13409;DHT22;6775;49.574;11.170;2024-01-25T15:28:04;7.80;99.90
13409;DHT22;6775;49.574;11.170;2024-01-25T15:30:34;7.70;99.90
13409;DHT22;6775;49.574;11.170;2024-01-25T15:33:03;7.60;99.90
13409;DHT22;6775;49.574;11.170;2024-01-25T15:35:32;7.60;99.90
13409;DHT22;6775;49.574;11.170;2024-01-25T15:38:00;7.50;99.90
13409;DHT22;6775;49.574;11.170;2024-01-25T15:40:32;7.40;99.90
13409;DHT22;6775;49.574;11.170;2024-01-25T15:43:00;7.40;99.90
13409;DHT22;6775;49.574;11.170;2024-01-25T15:45:29;7.30;99.90
13409;DHT22;6775;49.574;11.170;2024-01-25T15:47:58;7.20;99.90
13409;DHT22;6775;49.574;11.170;2024-01-25T15:50:27;7.10;99.90
13409;DHT22;6775;49.574;11.170;2024-01-25T15:52:55;7.00;99.90
13409;DHT22;6775;49.574;11.170;2024-01-25T15:55:23;6.90;99.90
13409;DHT22;6775;49.574;11.170;2024-01-25T15:57:51;6.80;99.90
13409;DHT22;6775;49.574;11.170;2024-01-25T16:00:20;6.80;99.90
13409;DHT22;6775;49.574;11.170;2024-01-25T16:02:48;6.70;99.90
13409;DHT22;6775;49.574;11.170;2024-01-25T16:05:19;6.70;99.90
13409;DHT22;6775;49.574;11.170;2024-01-25T16:07:47;6.60;99.90
13409;DHT22;6775;49.574;11.170;2024-01-25T16:10:17;6.60;99.90
13409;DHT22;6775;49.574;11.170;2024-01-25T16:12:46;6.50;99.90
13409;DHT22;6775;49.574;11.170;2024-01-25T16:15:18;6.50;99.90